Time;durP1;ratioP1;P1;durP2;ratioP2;P2;SDS_P1;SDS_P2;PMS_P1;PMS_P2;Temp;Humidity;BMP_temperature;BMP_pressure;BME280_temperature;BME280_humidity;BME280_pressure;Samples;Min_cycle;Max_cycle;Signal;HPM_P1;HPM_P2
2022/07/30 00:01:17;;;;;;;3.25;1.95;;;;;;;;;;4956803;28;20233;-86
2022/07/30 00:03:45;;;;;;;2.83;2.00;;;;;;;;;;4930939;28;20279;-86
2022/07/30 00:06:10;;;;;;;2.67;1.95;;;;;;;;;;4926438;28;20712;-85
2022/07/30 00:08:40;;;;;;;4.13;1.90;;;;;;;;;;4953039;28;20697;-85
2022/07/30 00:11:11;;;;;;;2.38;1.90;;;;;;;;;;4930432;28;20337;-87
2022/07/30 00:13:36;;;;;;;2.45;1.83;;;;;;;;;;4922151;29;20234;-85
2022/07/30 00:16:02;;;;;;;3.53;1.98;;;;;;;;;;4905311;29;20640;-86
2022/07/30 00:18:30;;;;;;;3.33;1.75;;;;;;;;;;4925506;28;20226;-86
2022/07/30 00:20:56;;;;;;;5.57;1.90;;;;;;;;;;4959070;28;20663;-87
2022/07/30 00:23:21;;;;;;;2.50;1.60;;;;;;;;;;4926060;28;20229;-86
2022/07/30 00:25:47;;;;;;;3.30;1.95;;;;;;;;;;4912693;29;20727;-85
2022/07/30 00:28:12;;;;;;;4.22;1.92;;;;;;;;;;4888220;29;20228;-85
2022/07/30 00:30:42;;;;;;;4.25;1.90;;;;;;;;;;4890841;29;20298;-88
2022/07/30 00:33:08;;;;;;;5.63;2.17;;;;;;;;;;4922396;28;20229;-86
2022/07/30 00:35:34;;;;;;;2.33;1.80;;;;;;;;;;4927609;29;20219;-87
2022/07/30 00:37:59;;;;;;;3.72;2.33;;;;;;;;;;4910090;29;20237;-87
2022/07/30 00:40:27;;;;;;;4.07;1.90;;;;;;;;;;4908138;29;20223;-85
2022/07/30 00:42:55;;;;;;;3.05;1.80;;;;;;;;;;4919939;28;20289;-86
2022/07/30 00:45:21;;;;;;;2.67;1.88;;;;;;;;;;4937103;28;20230;-85
2022/07/30 00:47:48;;;;;;;5.30;1.98;;;;;;;;;;4940002;28;20285;-87
2022/07/30 00:50:16;;;;;;;5.22;2.45;;;;;;;;;;4907652;28;20969;-86
2022/07/30 00:52:44;;;;;;;3.88;2.00;;;;;;;;;;4963912;28;20229;-87
2022/07/30 00:55:11;;;;;;;3.53;2.17;;;;;;;;;;4932367;28;20253;-87
2022/07/30 00:57:37;;;;;;;2.97;2.00;;;;;;;;;;4918413;29;20299;-88
2022/07/30 01:00:08;;;;;;;4.22;1.90;;;;;;;;;;4938712;28;20255;-86
2022/07/30 01:02:33;;;;;;;4.05;1.98;;;;;;;;;;4938160;29;20239;-86
2022/07/30 01:05:01;;;;;;;3.05;2.17;;;;;;;;;;4939381;29;20219;-86
2022/07/30 01:07:29;;;;;;;3.72;1.95;;;;;;;;;;4923252;29;20233;-86
2022/07/30 01:09:54;;;;;;;4.18;1.95;;;;;;;;;;4939305;29;20218;-86
2022/07/30 01:12:23;;;;;;;8.50;2.08;;;;;;;;;;4923599;29;20226;-87
2022/07/30 01:14:51;;;;;;;4.85;2.05;;;;;;;;;;4924490;29;20281;-87
2022/07/30 01:17:18;;;;;;;3.38;2.10;;;;;;;;;;4933727;29;20250;-88
2022/07/30 01:19:47;;;;;;;3.33;1.90;;;;;;;;;;4906248;29;20220;-87
2022/07/30 01:22:27;;;;;;;4.43;2.13;;;;;;;;;;4930285;29;20219;-87
2022/07/30 01:24:55;;;;;;;4.22;2.15;;;;;;;;;;4953695;28;20319;-86
2022/07/30 01:27:22;;;;;;;7.43;2.35;;;;;;;;;;4943438;28;20637;-87
2022/07/30 01:29:48;;;;;;;3.40;1.75;;;;;;;;;;4940408;28;20233;-87
2022/07/30 01:32:13;;;;;;;2.92;2.03;;;;;;;;;;4907276;29;20223;-86
2022/07/30 01:34:41;;;;;;;3.55;2.00;;;;;;;;;;4920007;28;20229;-86
2022/07/30 01:37:09;;;;;;;1.70;1.60;;;;;;;;;;4920958;28;20211;-87
2022/07/30 01:39:38;;;;;;;3.50;2.10;;;;;;;;;;4922776;29;20223;-86
2022/07/30 01:42:07;;;;;;;4.50;1.83;;;;;;;;;;4935373;28;20241;-84
2022/07/30 01:44:33;;;;;;;7.25;2.25;;;;;;;;;;4925793;28;20253;-86
2022/07/30 01:47:01;;;;;;;4.07;2.33;;;;;;;;;;4938590;29;20271;-85
2022/07/30 01:49:29;;;;;;;3.53;2.13;;;;;;;;;;4951056;28;20269;-85
2022/07/30 01:51:57;;;;;;;3.13;2.08;;;;;;;;;;4938119;29;20228;-84
2022/07/30 01:54:23;;;;;;;4.07;2.35;;;;;;;;;;4926066;28;20716;-84
2022/07/30 01:56:51;;;;;;;3.63;2.28;;;;;;;;;;4930297;29;20267;-84
2022/07/30 01:59:17;;;;;;;3.90;2.40;;;;;;;;;;4932105;28;20283;-85
2022/07/30 02:01:46;;;;;;;4.38;2.90;;;;;;;;;;4944622;28;20299;-85
2022/07/30 02:04:14;;;;;;;4.05;2.80;;;;;;;;;;4930391;28;20600;-82
2022/07/30 02:06:42;;;;;;;4.22;2.25;;;;;;;;;;4949861;28;20317;-83
2022/07/30 02:09:14;;;;;;;3.95;2.35;;;;;;;;;;4925584;29;20222;-83
2022/07/30 02:14:44;;;;;;;3.05;2.75;;;;;;;;;;4940887;29;20247;-83
2022/07/30 02:17:10;;;;;;;3.83;2.65;;;;;;;;;;4929413;28;20234;-86
2022/07/30 02:19:40;;;;;;;6.47;2.88;;;;;;;;;;4923939;28;20285;-84
2022/07/30 02:22:10;;;;;;;4.40;2.88;;;;;;;;;;4930340;28;20230;-83
2022/07/30 02:24:36;;;;;;;3.55;2.88;;;;;;;;;;4935133;29;20254;-84
2022/07/30 02:27:09;;;;;;;3.08;2.78;;;;;;;;;;4938864;29;20220;-84
2022/07/30 02:29:37;;;;;;;4.68;2.97;;;;;;;;;;4948589;29;20223;-84
2022/07/30 02:32:09;;;;;;;3.60;2.67;;;;;;;;;;4927073;28;20247;-84
2022/07/30 02:34:40;;;;;;;4.32;3.10;;;;;;;;;;4941653;29;20211;-85
2022/07/30 02:37:09;;;;;;;3.72;3.00;;;;;;;;;;4946301;28;20247;-86
2022/07/30 02:39:36;;;;;;;3.30;2.95;;;;;;;;;;4936845;29;20231;-86
2022/07/30 02:42:05;;;;;;;3.90;2.58;;;;;;;;;;4938379;28;20240;-85
2022/07/30 02:44:34;;;;;;;5.05;2.90;;;;;;;;;;4913099;29;20227;-86
2022/07/30 02:47:00;;;;;;;5.43;3.08;;;;;;;;;;4955986;28;20226;-83
2022/07/30 02:49:28;;;;;;;4.10;3.17;;;;;;;;;;4929093;28;20238;-83
2022/07/30 02:51:57;;;;;;;4.70;3.20;;;;;;;;;;4966074;28;20210;-83
2022/07/30 02:54:27;;;;;;;4.07;2.95;;;;;;;;;;4958422;28;20230;-83
2022/07/30 02:56:56;;;;;;;3.95;3.10;;;;;;;;;;4954087;28;20215;-84
2022/07/30 02:59:21;;;;;;;5.20;3.10;;;;;;;;;;4943974;28;20231;-83
2022/07/30 03:01:47;;;;;;;3.25;2.90;;;;;;;;;;4953187;28;20226;-83
2022/07/30 03:04:12;;;;;;;4.90;3.22;;;;;;;;;;4931151;28;20238;-84
2022/07/30 03:06:38;;;;;;;5.85;3.45;;;;;;;;;;4926308;29;20222;-84
2022/07/30 03:09:04;;;;;;;3.60;3.30;;;;;;;;;;4929161;28;20218;-85
2022/07/30 03:11:30;;;;;;;3.70;3.17;;;;;;;;;;4933692;28;20250;-85
2022/07/30 03:13:55;;;;;;;3.83;3.40;;;;;;;;;;4937109;28;20241;-83
2022/07/30 03:16:24;;;;;;;3.65;2.90;;;;;;;;;;4947392;28;20940;-84
2022/07/30 03:18:52;;;;;;;5.63;3.45;;;;;;;;;;4909131;29;20227;-83
2022/07/30 03:21:20;;;;;;;4.32;3.38;;;;;;;;;;4931413;29;20227;-84
2022/07/30 03:23:46;;;;;;;4.75;3.00;;;;;;;;;;4912944;29;20222;-84
2022/07/30 03:26:12;;;;;;;4.75;3.53;;;;;;;;;;4952043;28;20229;-84
2022/07/30 03:28:38;;;;;;;3.85;3.47;;;;;;;;;;4941332;29;20274;-85
2022/07/30 03:31:04;;;;;;;5.03;3.70;;;;;;;;;;4919715;29;20831;-84
2022/07/30 03:33:30;;;;;;;4.53;3.42;;;;;;;;;;4904900;29;20223;-84
2022/07/30 03:35:56;;;;;;;4.13;3.75;;;;;;;;;;4927671;29;20611;-85
2022/07/30 03:38:26;;;;;;;5.55;3.75;;;;;;;;;;4914826;28;20218;-84
2022/07/30 03:40:53;;;;;;;3.92;3.60;;;;;;;;;;4929948;29;20226;-86
2022/07/30 03:43:18;;;;;;;5.97;4.22;;;;;;;;;;4924477;29;20218;-84
2022/07/30 03:45:45;;;;;;;6.22;3.72;;;;;;;;;;4926863;29;20362;-85
2022/07/30 03:48:12;;;;;;;5.75;4.20;;;;;;;;;;4925531;28;20675;-83
2022/07/30 03:50:42;;;;;;;5.30;3.83;;;;;;;;;;4927348;28;20655;-84
2022/07/30 03:53:10;;;;;;;6.43;4.03;;;;;;;;;;4914938;29;20727;-84
2022/07/30 03:55:55;;;;;;;5.20;4.03;;;;;;;;;;4937715;28;20241;-84
2022/07/30 03:58:39;;;;;;;5.63;4.07;;;;;;;;;;4930139;29;20253;-81
2022/07/30 04:01:06;;;;;;;5.63;4.30;;;;;;;;;;4931696;28;20227;-83
2022/07/30 04:03:32;;;;;;;4.80;3.83;;;;;;;;;;4944840;29;20239;-82
2022/07/30 04:06:02;;;;;;;6.10;4.13;;;;;;;;;;4943950;28;20303;-82
2022/07/30 04:08:28;;;;;;;4.10;3.70;;;;;;;;;;4935950;28;20222;-83
2022/07/30 04:10:57;;;;;;;7.18;3.67;;;;;;;;;;4921109;28;20218;-83
2022/07/30 04:13:28;;;;;;;4.47;3.88;;;;;;;;;;4931386;28;20302;-83
2022/07/30 04:16:10;;;;;;;4.20;3.60;;;;;;;;;;4926976;28;20774;-83
2022/07/30 04:18:39;;;;;;;5.35;3.75;;;;;;;;;;4951380;28;20234;-82
2022/07/30 04:21:05;;;;;;;4.18;3.35;;;;;;;;;;4946995;28;20706;-83
2022/07/30 04:23:34;;;;;;;4.47;3.13;;;;;;;;;;4919136;29;20265;-82
2022/07/30 04:26:00;;;;;;;4.70;3.63;;;;;;;;;;4916301;29;20619;-83
2022/07/30 04:28:28;;;;;;;3.90;3.35;;;;;;;;;;4919628;28;20233;-82
2022/07/30 04:30:56;;;;;;;4.90;3.60;;;;;;;;;;4928186;29;20224;-83
2022/07/30 04:33:24;;;;;;;4.35;3.63;;;;;;;;;;4961213;28;20222;-82
2022/07/30 04:36:08;;;;;;;3.72;3.22;;;;;;;;;;4943565;28;20230;-77
2022/07/30 04:38:36;;;;;;;4.88;3.65;;;;;;;;;;4940592;28;20227;-78
2022/07/30 04:41:06;;;;;;;6.00;3.75;;;;;;;;;;4960434;28;20237;-77
2022/07/30 04:43:54;;;;;;;3.60;3.30;;;;;;;;;;4949184;28;20230;-77
2022/07/30 04:46:23;;;;;;;8.02;4.20;;;;;;;;;;4938077;28;20247;-78
2022/07/30 04:48:49;;;;;;;3.67;3.38;;;;;;;;;;4913087;28;20281;-78
2022/07/30 04:51:37;;;;;;;4.68;3.88;;;;;;;;;;4956020;28;20233;-79
2022/07/30 04:54:03;;;;;;;3.70;3.38;;;;;;;;;;4939222;28;20235;-79
2022/07/30 04:56:31;;;;;;;4.00;3.60;;;;;;;;;;4935391;28;20306;-79
2022/07/30 04:58:57;;;;;;;5.60;3.38;;;;;;;;;;4915303;28;20311;-79
2022/07/30 05:01:30;;;;;;;4.78;3.80;;;;;;;;;;4915560;28;20218;-79
2022/07/30 05:03:55;;;;;;;4.72;3.55;;;;;;;;;;4928265;28;20220;-79
2022/07/30 05:06:25;;;;;;;6.03;3.63;;;;;;;;;;4945032;28;20223;-79
2022/07/30 05:08:51;;;;;;;4.72;3.80;;;;;;;;;;4933054;28;20230;-80
2022/07/30 05:11:16;;;;;;;5.88;3.22;;;;;;;;;;4949480;28;20665;-80
2022/07/30 05:13:47;;;;;;;3.95;3.45;;;;;;;;;;4942846;28;20217;-79
2022/07/30 05:16:17;;;;;;;4.63;3.78;;;;;;;;;;4931487;28;20309;-79
2022/07/30 05:18:43;;;;;;;5.45;3.53;;;;;;;;;;4928253;28;20218;-80
2022/07/30 05:21:09;;;;;;;6.28;3.72;;;;;;;;;;4953076;28;20215;-79
2022/07/30 05:23:42;;;;;;;4.13;3.60;;;;;;;;;;4927088;28;20238;-79
2022/07/30 05:26:19;;;;;;;11.27;4.07;;;;;;;;;;4924526;28;20261;-78
2022/07/30 05:28:51;;;;;;;4.45;3.83;;;;;;;;;;4922795;28;20734;-78
2022/07/30 05:31:22;;;;;;;5.47;3.72;;;;;;;;;;4932758;28;20600;-80
2022/07/30 05:33:54;;;;;;;6.30;3.95;;;;;;;;;;4950549;28;20289;-78
2022/07/30 05:36:24;;;;;;;8.32;4.32;;;;;;;;;;4913370;28;20217;-78
2022/07/30 05:38:49;;;;;;;4.60;3.72;;;;;;;;;;4961081;28;20237;-79
2022/07/30 05:41:21;;;;;;;4.47;4.07;;;;;;;;;;4925165;28;20234;-79
2022/07/30 05:44:09;;;;;;;6.68;4.03;;;;;;;;;;4933833;28;20282;-79
2022/07/30 05:46:34;;;;;;;4.72;4.32;;;;;;;;;;4936603;28;20231;-78
2022/07/30 05:49:00;;;;;;;4.45;4.05;;;;;;;;;;4927164;28;20237;-80
2022/07/30 05:51:26;;;;;;;5.30;4.80;;;;;;;;;;4934132;28;20223;-78
2022/07/30 05:53:52;;;;;;;5.05;4.57;;;;;;;;;;4956609;28;20257;-79
2022/07/30 05:56:56;;;;;;;5.10;4.32;;;;;;;;;;4926287;29;20783;-80
2022/07/30 05:59:30;;;;;;;5.45;4.47;;;;;;;;;;4869825;29;20231;-79
2022/07/30 06:02:11;;;;;;;5.18;4.30;;;;;;;;;;4931800;28;20235;-79
2022/07/30 06:05:07;;;;;;;5.10;4.43;;;;;;;;;;4943708;28;20227;-78
2022/07/30 06:07:33;;;;;;;6.18;4.80;;;;;;;;;;4943663;29;20218;-78
2022/07/30 06:10:00;;;;;;;5.43;4.93;;;;;;;;;;4945501;28;20311;-78
2022/07/30 06:12:27;;;;;;;5.68;4.75;;;;;;;;;;4934574;28;20227;-78
2022/07/30 06:14:57;;;;;;;5.38;4.70;;;;;;;;;;4978074;28;20261;-77
2022/07/30 06:17:34;;;;;;;6.18;5.00;;;;;;;;;;4980856;28;20282;-78
2022/07/30 06:20:15;;;;;;;6.75;5.20;;;;;;;;;;4965198;28;20226;-78
2022/07/30 06:22:53;;;;;;;7.85;5.30;;;;;;;;;;4965465;28;20226;-77
2022/07/30 06:25:25;;;;;;;6.43;5.68;;;;;;;;;;4976016;28;20373;-79
2022/07/30 06:27:53;;;;;;;7.93;5.43;;;;;;;;;;4929165;28;20313;-78
2022/07/30 06:30:21;;;;;;;7.07;5.40;;;;;;;;;;4956165;28;20262;-78
2022/07/30 06:32:49;;;;;;;5.63;5.22;;;;;;;;;;4946748;28;20223;-78
2022/07/30 06:35:19;;;;;;;6.38;5.63;;;;;;;;;;4939682;28;20226;-78
2022/07/30 06:37:47;;;;;;;6.47;5.55;;;;;;;;;;4935600;28;20262;-78
2022/07/30 06:40:13;;;;;;;7.18;5.22;;;;;;;;;;4939675;28;20215;-78
2022/07/30 06:43:00;;;;;;;6.15;5.57;;;;;;;;;;4952385;28;20321;-78
2022/07/30 06:45:36;;;;;;;6.90;5.68;;;;;;;;;;4944940;28;20268;-78
2022/07/30 06:48:26;;;;;;;5.50;4.93;;;;;;;;;;4958999;28;20226;-78
2022/07/30 06:50:52;;;;;;;7.65;5.88;;;;;;;;;;4966064;28;20218;-77
2022/07/30 06:53:17;;;;;;;7.03;5.47;;;;;;;;;;4936901;28;20223;-77
2022/07/30 06:56:21;;;;;;;5.53;4.93;;;;;;;;;;4890876;29;20230;-79
2022/07/30 06:58:54;;;;;;;7.63;5.60;;;;;;;;;;4905116;28;20227;-77
2022/07/30 07:01:38;;;;;;;5.75;5.25;;;;;;;;;;4952462;28;20244;-76
2022/07/30 07:04:06;;;;;;;7.03;5.43;;;;;;;;;;4937988;28;20226;-75
2022/07/30 07:06:37;;;;;;;6.82;5.20;;;;;;;;;;4912154;28;20314;-78
2022/07/30 07:09:03;;;;;;;5.95;5.13;;;;;;;;;;4934498;28;20219;-76
2022/07/30 07:11:43;;;;;;;5.93;4.95;;;;;;;;;;4936167;28;20219;-79
2022/07/30 07:14:11;;;;;;;6.55;5.95;;;;;;;;;;4945132;28;20223;-78
2022/07/30 07:16:40;;;;;;;5.85;5.25;;;;;;;;;;4928257;28;20928;-77
2022/07/30 07:19:25;;;;;;;6.47;5.60;;;;;;;;;;4936365;28;20716;-79
2022/07/30 07:21:53;;;;;;;6.20;5.70;;;;;;;;;;4948601;28;20239;-76
2022/07/30 07:24:19;;;;;;;5.47;4.97;;;;;;;;;;4906375;28;20262;-77
2022/07/30 07:26:55;;;;;;;7.25;5.15;;;;;;;;;;4932899;28;20309;-79
2022/07/30 07:29:21;;;;;;;5.22;4.75;;;;;;;;;;4943642;28;20230;-79
2022/07/30 07:31:49;;;;;;;5.28;4.78;;;;;;;;;;4909800;28;20233;-79
2022/07/30 07:34:17;;;;;;;5.80;5.30;;;;;;;;;;4923310;28;20230;-78
2022/07/30 07:36:42;;;;;;;7.05;5.18;;;;;;;;;;4933208;28;20755;-80
2022/07/30 07:39:09;;;;;;;6.20;4.80;;;;;;;;;;4933415;28;20223;-79
2022/07/30 07:41:37;;;;;;;5.45;4.72;;;;;;;;;;4943009;28;20223;-81
2022/07/30 07:44:05;;;;;;;6.78;4.93;;;;;;;;;;4909547;29;20278;-80
2022/07/30 07:46:32;;;;;;;7.15;4.78;;;;;;;;;;4919655;28;20215;-78
2022/07/30 07:48:59;;;;;;;5.25;4.75;;;;;;;;;;4943251;28;20218;-79
2022/07/30 07:51:38;;;;;;;5.57;4.95;;;;;;;;;;4944750;28;20222;-80
2022/07/30 07:54:09;;;;;;;5.22;4.72;;;;;;;;;;4924431;28;20230;-79
2022/07/30 07:56:37;;;;;;;8.40;4.65;;;;;;;;;;4954541;28;20693;-81
2022/07/30 07:59:03;;;;;;;5.05;4.63;;;;;;;;;;4942541;28;20233;-84
2022/07/30 08:01:29;;;;;;;5.10;4.60;;;;;;;;;;4924777;28;20253;-82
2022/07/30 08:04:13;;;;;;;4.45;4.05;;;;;;;;;;4935424;28;20262;-81
2022/07/30 08:07:11;;;;;;;4.95;4.45;;;;;;;;;;4893499;28;20222;-83
2022/07/30 08:09:55;;;;;;;6.70;4.72;;;;;;;;;;4940048;28;20274;-84
2022/07/30 08:12:28;;;;;;;4.97;4.40;;;;;;;;;;4950697;28;20251;-84
2022/07/30 08:15:12;;;;;;;5.07;4.07;;;;;;;;;;4933055;28;20270;-82
2022/07/30 08:17:44;;;;;;;6.38;4.00;;;;;;;;;;4948564;28;20253;-84
2022/07/30 08:20:21;;;;;;;4.38;3.97;;;;;;;;;;4938109;28;20226;-82
2022/07/30 08:22:46;;;;;;;3.95;3.60;;;;;;;;;;4952982;28;20638;-84
2022/07/30 08:25:13;;;;;;;4.78;4.15;;;;;;;;;;4946070;28;20227;-81
2022/07/30 08:27:39;;;;;;;4.28;3.88;;;;;;;;;;4915791;28;20210;-82
2022/07/30 08:30:08;;;;;;;4.57;4.05;;;;;;;;;;4910656;29;20581;-84
2022/07/30 08:32:37;;;;;;;4.05;3.72;;;;;;;;;;4931839;28;20213;-82
2022/07/30 08:35:05;;;;;;;6.60;3.67;;;;;;;;;;4913318;28;20228;-81
2022/07/30 08:37:31;;;;;;;3.53;3.22;;;;;;;;;;4942883;28;20254;-82
2022/07/30 08:39:57;;;;;;;5.97;3.38;;;;;;;;;;4941581;29;20231;-82
2022/07/30 08:42:22;;;;;;;3.03;2.72;;;;;;;;;;4940779;28;20226;-83
2022/07/30 08:44:49;;;;;;;3.10;2.70;;;;;;;;;;4922058;28;20231;-83
2022/07/30 08:47:19;;;;;;;6.88;2.50;;;;;;;;;;4935128;28;20215;-84
2022/07/30 08:50:04;;;;;;;2.45;2.25;;;;;;;;;;4948689;28;20230;-81
2022/07/30 08:52:32;;;;;;;3.83;2.90;;;;;;;;;;4938940;28;20245;-80
2022/07/30 08:54:59;;;;;;;2.20;2.10;;;;;;;;;;4957928;29;20228;-80
2022/07/30 08:57:28;;;;;;;2.38;2.17;;;;;;;;;;4970165;28;20228;-80
2022/07/30 08:59:55;;;;;;;2.58;2.00;;;;;;;;;;4929094;29;20247;-80
2022/07/30 09:02:23;;;;;;;2.60;2.40;;;;;;;;;;4940339;28;20234;-82
2022/07/30 09:04:58;;;;;;;4.28;2.50;;;;;;;;;;4953340;28;20251;-82
2022/07/30 09:07:23;;;;;;;3.65;2.40;;;;;;;;;;4940413;28;20223;-80
2022/07/30 09:09:49;;;;;;;3.30;2.42;;;;;;;;;;4960542;28;20254;-82
2022/07/30 09:12:31;;;;;;;4.07;2.28;;;;;;;;;;4964947;28;20221;-82
2022/07/30 09:15:06;;;;;;;3.92;2.38;;;;;;;;;;4923506;29;20223;-80
2022/07/30 09:17:51;;;;;;;2.95;2.30;;;;;;;;;;4959779;28;20225;-81
2022/07/30 09:20:19;;;;;;;3.60;2.38;;;;;;;;;;4954690;28;20222;-79
2022/07/30 09:22:58;;;;;;;2.92;2.10;;;;;;;;;;4901215;29;20231;-81
2022/07/30 09:25:32;;;;;;;5.82;2.22;;;;;;;;;;4931385;28;20643;-81
2022/07/30 09:28:26;;;;;;;2.75;2.30;;;;;;;;;;4946913;28;20234;-80
2022/07/30 09:31:10;;;;;;;2.20;2.00;;;;;;;;;;4941710;28;20237;-78
2022/07/30 09:33:54;;;;;;;3.50;2.25;;;;;;;;;;4948119;29;20285;-81
2022/07/30 09:36:40;;;;;;;2.40;2.15;;;;;;;;;;4950626;28;20326;-79
2022/07/30 09:39:37;;;;;;;5.28;2.15;;;;;;;;;;4948505;28;20671;-79
2022/07/30 09:42:30;;;;;;;4.22;2.20;;;;;;;;;;4942165;28;20229;-80
2022/07/30 09:45:07;;;;;;;3.00;2.30;;;;;;;;;;4944271;28;20234;-82
2022/07/30 09:47:39;;;;;;;2.50;2.20;;;;;;;;;;4948116;29;20643;-81
2022/07/30 09:50:05;;;;;;;2.28;2.08;;;;;;;;;;4930817;29;20747;-81
2022/07/30 09:52:31;;;;;;;2.33;1.98;;;;;;;;;;4941964;28;20782;-84
2022/07/30 09:54:59;;;;;;;2.75;2.20;;;;;;;;;;4932470;28;20233;-83
2022/07/30 09:57:31;;;;;;;6.00;2.20;;;;;;;;;;4895698;29;20219;-81
2022/07/30 10:00:21;;;;;;;2.85;2.40;;;;;;;;;;4942660;28;20595;-80
2022/07/30 10:02:59;;;;;;;6.57;2.42;;;;;;;;;;4926656;28;20235;-82
2022/07/30 10:06:03;;;;;;;3.78;2.10;;;;;;;;;;4970881;28;20245;-81
2022/07/30 10:08:43;;;;;;;4.18;2.35;;;;;;;;;;4921407;28;20237;-82
2022/07/30 10:11:14;;;;;;;2.95;2.00;;;;;;;;;;4936439;28;20222;-82
2022/07/30 10:13:40;;;;;;;2.72;2.47;;;;;;;;;;4914398;28;20730;-79
2022/07/30 10:16:06;;;;;;;3.05;2.78;;;;;;;;;;4913367;29;20279;-82
2022/07/30 10:18:32;;;;;;;2.80;2.30;;;;;;;;;;4921164;28;20238;-80
2022/07/30 10:21:16;;;;;;;3.42;2.67;;;;;;;;;;4946962;28;20232;-80
2022/07/30 10:24:11;;;;;;;2.75;2.47;;;;;;;;;;4947905;28;20251;-79
2022/07/30 10:26:49;;;;;;;4.97;2.75;;;;;;;;;;4954401;28;20718;-81
2022/07/30 10:29:41;;;;;;;4.50;2.40;;;;;;;;;;4922982;28;20225;-80
2022/07/30 10:32:09;;;;;;;3.40;2.30;;;;;;;;;;4954226;28;20218;-77
2022/07/30 10:34:37;;;;;;;2.92;2.40;;;;;;;;;;4934142;28;20230;-80
2022/07/30 10:37:03;;;;;;;5.32;2.60;;;;;;;;;;4936155;28;20228;-80
2022/07/30 10:39:44;;;;;;;3.40;2.40;;;;;;;;;;4943188;29;20245;-81
2022/07/30 10:42:24;;;;;;;3.13;2.40;;;;;;;;;;4951448;28;20254;-82
2022/07/30 10:45:06;;;;;;;3.08;2.60;;;;;;;;;;4952015;28;20310;-81
2022/07/30 10:47:32;;;;;;;3.88;2.20;;;;;;;;;;4967501;28;20652;-81
2022/07/30 10:50:12;;;;;;;3.25;2.33;;;;;;;;;;4969453;28;20234;-80
2022/07/30 10:52:45;;;;;;;3.20;2.65;;;;;;;;;;4964752;28;20229;-82
2022/07/30 10:55:14;;;;;;;3.35;2.83;;;;;;;;;;4917473;29;20240;-79
2022/07/30 10:58:12;;;;;;;3.35;2.80;;;;;;;;;;4932041;28;20226;-81
2022/07/30 11:00:53;;;;;;;6.18;2.83;;;;;;;;;;4930531;28;20234;-81
2022/07/30 11:03:28;;;;;;;3.90;2.50;;;;;;;;;;4966556;28;20677;-81
2022/07/30 11:06:14;;;;;;;2.88;2.42;;;;;;;;;;4941818;28;20247;-81
2022/07/30 11:08:40;;;;;;;3.90;2.50;;;;;;;;;;4960581;28;20230;-82
2022/07/30 11:11:21;;;;;;;3.03;2.40;;;;;;;;;;4957257;28;20256;-79
2022/07/30 11:13:59;;;;;;;2.55;2.25;;;;;;;;;;4944530;28;20235;-82
2022/07/30 11:16:33;;;;;;;3.10;2.20;;;;;;;;;;4925158;28;20250;-81
2022/07/30 11:19:07;;;;;;;3.08;2.17;;;;;;;;;;4970788;28;20241;-80
2022/07/30 11:21:35;;;;;;;2.20;2.00;;;;;;;;;;4926451;29;20225;-82
2022/07/30 11:24:03;;;;;;;3.88;2.25;;;;;;;;;;4955753;28;20240;-82
2022/07/30 11:26:38;;;;;;;3.42;2.22;;;;;;;;;;4963247;28;20218;-81
2022/07/30 11:29:32;;;;;;;3.40;2.30;;;;;;;;;;4930025;28;20254;-79
2022/07/30 11:32:25;;;;;;;3.17;2.45;;;;;;;;;;4955797;28;20325;-81
2022/07/30 11:34:51;;;;;;;2.38;2.05;;;;;;;;;;4958763;28;20258;-78
2022/07/30 11:37:17;;;;;;;3.55;2.55;;;;;;;;;;4930929;28;20251;-80
2022/07/30 11:39:55;;;;;;;2.20;1.92;;;;;;;;;;4951838;28;20262;-81
2022/07/30 11:42:31;;;;;;;2.78;2.25;;;;;;;;;;4965476;28;20230;-80
2022/07/30 11:45:15;;;;;;;4.28;2.40;;;;;;;;;;4923165;29;20238;-81
2022/07/30 11:47:47;;;;;;;3.00;2.35;;;;;;;;;;4967609;28;20215;-82
2022/07/30 11:50:36;;;;;;;3.15;2.00;;;;;;;;;;4919654;28;20277;-82
2022/07/30 11:53:09;;;;;;;2.60;2.10;;;;;;;;;;4936796;29;20227;-79
2022/07/30 11:55:39;;;;;;;4.30;2.40;;;;;;;;;;4959116;28;20782;-80
2022/07/30 11:58:21;;;;;;;3.22;2.45;;;;;;;;;;4949010;28;20227;-83
2022/07/30 12:00:49;;;;;;;3.22;2.13;;;;;;;;;;4926794;28;20273;-81
2022/07/30 12:03:16;;;;;;;2.92;1.92;;;;;;;;;;4937934;29;20251;-81
2022/07/30 12:05:42;;;;;;;3.65;2.17;;;;;;;;;;4936867;28;20738;-81
2022/07/30 12:08:13;;;;;;;2.95;2.22;;;;;;;;;;4948281;28;20304;-80
2022/07/30 12:10:38;;;;;;;2.45;2.20;;;;;;;;;;4941620;28;20282;-81
2022/07/30 12:13:07;;;;;;;4.43;2.40;;;;;;;;;;4943738;28;20237;-84
2022/07/30 12:15:36;;;;;;;2.35;2.08;;;;;;;;;;4945136;28;20321;-82
2022/07/30 12:18:04;;;;;;;2.92;2.13;;;;;;;;;;4937391;28;20253;-82
2022/07/30 12:20:30;;;;;;;3.50;2.20;;;;;;;;;;4959976;28;20222;-82
2022/07/30 12:22:58;;;;;;;3.20;2.20;;;;;;;;;;4909895;23;21683;-73
2022/07/30 12:25:23;;;;;;;3.45;2.22;;;;;;;;;;4915471;28;20233;-74
2022/07/30 12:27:49;;;;;;;3.63;2.10;;;;;;;;;;4880966;29;20231;-75
2022/07/30 12:30:18;;;;;;;3.25;2.10;;;;;;;;;;4896732;29;20315;-73
2022/07/30 12:32:46;;;;;;;3.15;2.00;;;;;;;;;;4912827;29;20219;-73
2022/07/30 12:35:12;;;;;;;2.13;1.85;;;;;;;;;;4894504;29;20617;-75
2022/07/30 12:37:38;;;;;;;2.50;2.28;;;;;;;;;;4881597;29;20226;-75
2022/07/30 12:40:14;;;;;;;2.88;1.98;;;;;;;;;;4911170;29;20254;-75
2022/07/30 12:42:51;;;;;;;3.47;1.92;;;;;;;;;;4896293;29;20645;-74
2022/07/30 12:45:32;;;;;;;2.97;1.67;;;;;;;;;;4913790;29;20221;-74
2022/07/30 12:48:02;;;;;;;3.33;2.00;;;;;;;;;;4911528;29;20781;-74
2022/07/30 12:50:33;;;;;;;2.55;1.90;;;;;;;;;;4900900;29;20236;-74
2022/07/30 12:53:01;;;;;;;1.80;1.65;;;;;;;;;;4927860;29;20226;-73
2022/07/30 12:55:33;;;;;;;1.80;1.70;;;;;;;;;;4895376;29;20224;-72
2022/07/30 12:58:05;;;;;;;5.60;2.30;;;;;;;;;;4911751;29;20255;-78
2022/07/30 13:00:53;;;;;;;2.47;1.92;;;;;;;;;;4911419;29;20677;-73
2022/07/30 13:03:23;;;;;;;2.55;1.98;;;;;;;;;;4898001;29;20249;-74
2022/07/30 13:05:49;;;;;;;4.05;2.33;;;;;;;;;;4910498;29;20239;-72
2022/07/30 13:08:17;;;;;;;3.20;2.00;;;;;;;;;;4879283;29;20228;-74
2022/07/30 13:10:56;;;;;;;2.45;2.03;;;;;;;;;;4911081;29;20736;-73
2022/07/30 13:13:21;;;;;;;2.55;2.00;;;;;;;;;;4897802;29;20686;-73
2022/07/30 13:16:01;;;;;;;2.70;1.80;;;;;;;;;;4861835;29;20780;-73
2022/07/30 13:18:31;;;;;;;2.00;1.80;;;;;;;;;;4902046;29;20231;-74
2022/07/30 13:20:57;;;;;;;2.88;1.67;;;;;;;;;;4894848;29;20277;-73
2022/07/30 13:23:23;;;;;;;2.92;1.63;;;;;;;;;;4894298;29;20322;-74
2022/07/30 13:25:49;;;;;;;2.67;1.70;;;;;;;;;;4879655;29;20847;-74
2022/07/30 13:28:17;;;;;;;1.90;1.75;;;;;;;;;;4912721;29;20219;-75
2022/07/30 13:30:42;;;;;;;2.47;1.50;;;;;;;;;;4893141;29;20227;-74
2022/07/30 13:33:13;;;;;;;2.40;1.75;;;;;;;;;;4871253;29;20231;-73
2022/07/30 13:35:41;;;;;;;1.85;1.58;;;;;;;;;;4896481;29;20223;-72
2022/07/30 13:38:10;;;;;;;2.20;1.60;;;;;;;;;;4912891;29;20767;-74
2022/07/30 13:40:38;;;;;;;2.50;1.75;;;;;;;;;;4928442;29;20223;-72
2022/07/30 13:43:03;;;;;;;2.05;1.52;;;;;;;;;;4898961;29;20241;-72
2022/07/30 13:45:29;;;;;;;2.20;1.63;;;;;;;;;;4873635;29;20224;-76
2022/07/30 13:47:55;;;;;;;1.60;1.50;;;;;;;;;;4880709;29;20629;-73
2022/07/30 13:50:25;;;;;;;1.50;1.40;;;;;;;;;;4916315;29;20231;-72
2022/07/30 13:52:53;;;;;;;3.60;1.50;;;;;;;;;;4930000;29;20824;-71
2022/07/30 13:55:18;;;;;;;2.25;2.00;;;;;;;;;;4902587;29;20235;-73
2022/07/30 13:57:46;;;;;;;2.20;1.80;;;;;;;;;;4899958;29;20773;-73
2022/07/30 14:00:12;;;;;;;4.43;1.80;;;;;;;;;;4899162;29;20215;-73
2022/07/30 14:02:38;;;;;;;2.28;1.90;;;;;;;;;;4897464;29;20236;-73
2022/07/30 14:05:06;;;;;;;5.70;1.90;;;;;;;;;;4887273;29;20259;-73
2022/07/30 14:07:33;;;;;;;4.43;2.08;;;;;;;;;;4904856;29;20243;-73
2022/07/30 14:09:58;;;;;;;5.45;2.10;;;;;;;;;;4900308;29;20235;-73
2022/07/30 14:12:24;;;;;;;3.28;1.90;;;;;;;;;;4913872;29;20231;-73
2022/07/30 14:14:54;;;;;;;3.45;1.83;;;;;;;;;;4869965;29;20313;-73
2022/07/30 14:17:19;;;;;;;3.10;1.58;;;;;;;;;;4925734;29;20286;-73
2022/07/30 14:19:46;;;;;;;1.90;1.77;;;;;;;;;;4882073;29;20235;-73
2022/07/30 14:22:13;;;;;;;2.15;1.70;;;;;;;;;;4911385;29;20243;-72
2022/07/30 14:24:39;;;;;;;1.75;1.65;;;;;;;;;;4915072;29;20266;-73
2022/07/30 14:27:05;;;;;;;2.33;1.88;;;;;;;;;;4930430;29;20701;-73
2022/07/30 14:29:35;;;;;;;1.52;1.30;;;;;;;;;;4902281;29;20216;-72
2022/07/30 14:32:05;;;;;;;1.80;1.65;;;;;;;;;;4914358;29;20224;-73
2022/07/30 14:34:31;;;;;;;1.60;1.50;;;;;;;;;;4930902;29;20831;-73
2022/07/30 14:36:56;;;;;;;2.25;1.60;;;;;;;;;;4896748;29;20319;-74
2022/07/30 14:39:25;;;;;;;2.05;1.83;;;;;;;;;;4896295;29;20389;-74
2022/07/30 14:41:53;;;;;;;3.10;1.85;;;;;;;;;;4896934;29;20231;-73
2022/07/30 14:44:23;;;;;;;2.58;1.73;;;;;;;;;;4928802;29;20220;-73
2022/07/30 14:46:49;;;;;;;3.20;1.77;;;;;;;;;;4928626;29;20258;-76
2022/07/30 14:49:14;;;;;;;2.35;2.00;;;;;;;;;;4896395;29;20232;-73
2022/07/30 14:51:40;;;;;;;2.13;1.90;;;;;;;;;;4888005;29;20307;-73
2022/07/30 14:54:06;;;;;;;1.92;1.80;;;;;;;;;;4910772;29;20224;-73
2022/07/30 14:56:32;;;;;;;4.88;1.88;;;;;;;;;;4913009;29;20235;-74
2022/07/30 14:59:00;;;;;;;2.00;1.80;;;;;;;;;;4877071;29;20236;-75
2022/07/30 15:01:25;;;;;;;2.42;1.83;;;;;;;;;;4908194;29;20254;-75
2022/07/30 15:03:51;;;;;;;2.33;1.95;;;;;;;;;;4931638;29;20960;-73
2022/07/30 15:06:17;;;;;;;4.38;2.00;;;;;;;;;;4910197;29;20227;-73
2022/07/30 15:08:45;;;;;;;2.47;2.03;;;;;;;;;;4914152;29;20235;-76